createdAt,value
2018-02-10T00:01:59.317Z,2.70
2018-02-10T00:04:26.786Z,2.70
2018-02-10T00:06:54.256Z,2.70
2018-02-10T00:09:21.705Z,2.70
2018-02-10T00:11:49.169Z,2.70
2018-02-10T00:14:16.617Z,2.60
2018-02-10T00:16:44.077Z,2.60
2018-02-10T00:19:11.531Z,2.70
2018-02-10T00:21:39.013Z,2.70
2018-02-10T00:24:06.463Z,2.70
2018-02-10T00:26:33.925Z,2.70
2018-02-10T00:29:01.390Z,2.70
2018-02-10T00:31:28.857Z,2.70
2018-02-10T00:33:57.068Z,2.80
2018-02-10T00:36:24.533Z,2.80
2018-02-10T00:38:51.986Z,2.80
2018-02-10T00:41:19.440Z,2.80
2018-02-10T00:43:46.893Z,2.80
2018-02-10T00:46:14.404Z,2.80
2018-02-10T00:48:41.804Z,2.80
2018-02-10T00:51:09.261Z,2.80
2018-02-10T00:53:36.722Z,2.80
2018-02-10T00:56:04.182Z,2.80
2018-02-10T00:58:31.679Z,2.80
2018-02-10T01:00:59.105Z,2.80
2018-02-10T01:03:26.557Z,2.80
2018-02-10T01:05:54.008Z,2.80
2018-02-10T01:08:21.464Z,2.80
2018-02-10T01:10:48.921Z,2.80
2018-02-10T01:13:16.381Z,2.80
2018-02-10T01:15:43.836Z,2.80
2018-02-10T01:18:11.292Z,2.80
2018-02-10T01:20:38.758Z,2.80
2018-02-10T01:23:06.212Z,2.80
2018-02-10T01:25:34.432Z,2.90
2018-02-10T01:28:02.658Z,2.90
2018-02-10T01:30:30.110Z,2.80
2018-02-10T01:32:57.569Z,2.90
2018-02-10T01:35:25.025Z,2.80
2018-02-10T01:37:52.493Z,2.80
2018-02-10T01:40:19.950Z,2.80
2018-02-10T01:42:47.407Z,2.70
2018-02-10T01:45:14.852Z,2.70
2018-02-10T01:47:42.322Z,2.70
2018-02-10T01:50:21.628Z,2.70
2018-02-10T01:52:49.089Z,2.80
2018-02-10T01:55:16.546Z,2.70
2018-02-10T01:57:44.001Z,2.70
2018-02-10T02:00:11.456Z,2.70
2018-02-10T02:02:38.921Z,2.70
2018-02-10T02:05:06.375Z,2.80
2018-02-10T02:07:33.837Z,2.70
2018-02-10T02:10:01.284Z,2.70
2018-02-10T02:12:28.758Z,2.70
2018-02-10T02:14:56.196Z,2.70
2018-02-10T02:17:23.656Z,2.70
2018-02-10T02:19:51.109Z,2.70
2018-02-10T02:22:18.568Z,2.80
2018-02-10T02:24:46.027Z,2.80
2018-02-10T02:27:13.487Z,2.80
2018-02-10T02:29:40.942Z,2.80
2018-02-10T02:32:08.396Z,2.90
2018-02-10T02:34:35.848Z,2.90
2018-02-10T02:37:03.311Z,2.90
2018-02-10T02:39:30.771Z,2.90
2018-02-10T02:41:58.223Z,2.90
2018-02-10T02:44:25.686Z,2.90
2018-02-10T02:46:53.138Z,2.90
2018-02-10T02:49:20.597Z,2.90
2018-02-10T02:51:48.050Z,2.90
2018-02-10T02:54:15.509Z,2.90
2018-02-10T02:56:42.961Z,2.90
2018-02-10T02:59:10.421Z,2.90
2018-02-10T03:01:37.873Z,2.90
2018-02-10T03:04:05.328Z,2.90
2018-02-10T03:06:32.793Z,2.90
2018-02-10T03:09:00.255Z,2.90
2018-02-10T03:11:27.714Z,2.90
2018-02-10T03:13:55.169Z,2.90
2018-02-10T03:16:22.656Z,2.90
2018-02-10T03:18:50.093Z,2.90
2018-02-10T03:21:17.552Z,2.90
2018-02-10T03:23:45.013Z,3.00
2018-02-10T03:26:12.478Z,3.00
2018-02-10T03:28:39.939Z,3.00
2018-02-10T03:31:07.456Z,3.00
2018-02-10T03:33:34.897Z,3.00
2018-02-10T03:36:02.357Z,3.00
2018-02-10T03:38:29.804Z,3.00
2018-02-10T03:40:57.261Z,3.00
2018-02-10T03:43:24.714Z,3.00
2018-02-10T03:45:52.937Z,3.00
2018-02-10T03:48:20.388Z,3.00
2018-02-10T03:50:47.849Z,3.00
2018-02-10T03:53:15.305Z,3.00
2018-02-10T03:55:42.777Z,3.00
2018-02-10T03:58:10.240Z,3.00
2018-02-10T04:00:37.701Z,3.00
2018-02-10T04:03:05.153Z,3.00
2018-02-10T04:05:32.609Z,3.00
2018-02-10T04:08:00.063Z,3.00
2018-02-10T04:10:27.520Z,2.90
2018-02-10T04:12:54.973Z,3.00
2018-02-10T04:15:22.439Z,3.00
2018-02-10T04:17:49.885Z,2.90
2018-02-10T04:20:17.345Z,3.00
2018-02-10T04:22:44.796Z,3.00
2018-02-10T04:25:12.249Z,3.00
2018-02-10T04:27:39.710Z,3.00
2018-02-10T04:30:07.171Z,3.00
2018-02-10T04:32:34.624Z,3.00
2018-02-10T04:35:02.073Z,3.00
2018-02-10T04:37:29.538Z,3.00
2018-02-10T04:39:56.989Z,3.00
2018-02-10T04:42:24.448Z,3.00
2018-02-10T04:44:51.911Z,3.00
2018-02-10T04:47:19.370Z,3.00
2018-02-10T04:49:46.831Z,3.00
2018-02-10T04:52:14.294Z,3.00
2018-02-10T04:54:41.741Z,3.00
2018-02-10T04:57:09.202Z,3.00
2018-02-10T04:59:36.653Z,2.90
2018-02-10T05:02:04.114Z,2.90
2018-02-10T05:04:31.565Z,2.90
2018-02-10T05:06:59.033Z,2.90
2018-02-10T05:09:26.482Z,2.90
2018-02-10T05:11:53.947Z,2.90
2018-02-10T05:14:21.396Z,2.80
2018-02-10T05:16:48.854Z,2.80
2018-02-10T05:19:16.313Z,2.80
2018-02-10T05:21:43.777Z,2.80
2018-02-10T05:24:11.994Z,2.80
2018-02-10T05:26:39.460Z,2.80
2018-02-10T05:29:06.905Z,2.80
2018-02-10T05:31:34.413Z,2.80
2018-02-10T05:34:01.865Z,2.80
2018-02-10T05:36:29.320Z,2.80
2018-02-10T05:38:56.777Z,2.80
2018-02-10T05:41:24.238Z,2.80
2018-02-10T05:43:51.697Z,2.80
2018-02-10T05:46:19.149Z,2.80
2018-02-10T05:48:46.612Z,2.80
2018-02-10T05:51:14.065Z,2.80
2018-02-10T05:53:41.526Z,2.80
2018-02-10T05:56:08.986Z,2.80
2018-02-10T05:58:36.447Z,2.80
2018-02-10T06:01:04.661Z,2.80
2018-02-10T06:03:32.159Z,2.80
2018-02-10T06:05:59.585Z,2.80
2018-02-10T06:08:27.054Z,2.80
2018-02-10T06:10:54.509Z,2.80
2018-02-10T06:13:21.970Z,2.80
2018-02-10T06:15:49.422Z,2.80
2018-02-10T06:18:17.648Z,2.80
2018-02-10T06:20:45.102Z,2.80
2018-02-10T06:23:13.329Z,2.80
2018-02-10T06:25:40.784Z,2.80
2018-02-10T06:28:08.248Z,2.80
2018-02-10T06:30:35.697Z,2.80
2018-02-10T06:33:03.155Z,2.80
2018-02-10T06:35:30.604Z,2.80
2018-02-10T06:37:58.070Z,2.80
2018-02-10T06:40:25.539Z,2.80
2018-02-10T06:42:52.980Z,2.80
2018-02-10T06:45:20.438Z,2.80
2018-02-10T06:47:47.902Z,2.80
2018-02-10T06:50:15.349Z,2.80
2018-02-10T06:52:42.829Z,2.90
2018-02-10T06:55:10.276Z,2.90
2018-02-10T06:57:37.729Z,2.90
2018-02-10T07:00:05.188Z,2.90
2018-02-10T07:02:32.708Z,2.90
2018-02-10T07:05:00.166Z,2.90
2018-02-10T07:07:27.613Z,2.90
2018-02-10T07:09:55.083Z,2.90
2018-02-10T07:12:22.537Z,2.90
2018-02-10T07:14:49.992Z,3.00
2018-02-10T07:17:17.450Z,3.00
2018-02-10T07:19:44.912Z,3.00
2018-02-10T07:22:12.361Z,3.00
2018-02-10T07:24:39.826Z,3.10
2018-02-10T07:27:07.280Z,3.10
2018-02-10T07:29:34.746Z,3.20
2018-02-10T07:32:02.198Z,3.20
2018-02-10T07:34:29.667Z,3.20
2018-02-10T07:36:57.113Z,3.30
2018-02-10T07:39:24.565Z,3.30
2018-02-10T07:44:26.748Z,3.30
2018-02-10T07:46:54.202Z,3.30
2018-02-10T07:49:21.689Z,3.30
2018-02-10T07:51:49.189Z,3.30
2018-02-10T07:54:17.429Z,3.30
2018-02-10T07:56:44.881Z,3.20
2018-02-10T07:59:12.349Z,3.30
2018-02-10T08:01:39.805Z,3.30
2018-02-10T08:04:07.261Z,3.20
2018-02-10T08:06:34.721Z,3.20
2018-02-10T08:09:02.174Z,3.20
2018-02-10T08:11:29.633Z,3.20
2018-02-10T08:13:57.085Z,3.20
2018-02-10T08:16:24.549Z,3.20
2018-02-10T08:18:51.996Z,3.30
2018-02-10T08:21:19.461Z,3.30
2018-02-10T08:23:46.917Z,3.40
2018-02-10T08:26:14.373Z,3.40
2018-02-10T08:28:41.825Z,3.40
2018-02-10T08:31:09.284Z,3.40
2018-02-10T08:33:36.732Z,3.30
2018-02-10T08:36:04.215Z,3.30
2018-02-10T08:38:31.652Z,3.30
2018-02-10T08:40:59.108Z,3.20
2018-02-10T08:43:26.581Z,3.20
2018-02-10T08:45:54.812Z,3.20
2018-02-10T08:48:22.264Z,3.20
2018-02-10T08:50:49.727Z,3.30
2018-02-10T08:53:17.176Z,3.30
2018-02-10T08:55:44.648Z,3.30
2018-02-10T08:58:12.102Z,3.40
2018-02-10T09:00:39.562Z,3.40
2018-02-10T09:03:07.021Z,3.40
2018-02-10T09:05:34.497Z,3.40
2018-02-10T09:08:01.953Z,3.40
2018-02-10T09:10:29.404Z,3.50
2018-02-10T09:12:56.863Z,3.50
2018-02-10T09:15:24.373Z,3.50
2018-02-10T09:17:51.870Z,3.60
2018-02-10T09:20:19.277Z,3.60
2018-02-10T09:22:46.732Z,3.60
2018-02-10T09:25:14.190Z,3.70
2018-02-10T09:27:41.661Z,3.70
2018-02-10T09:30:09.112Z,3.60
2018-02-10T09:32:36.575Z,3.60
2018-02-10T09:35:04.025Z,3.70
2018-02-10T09:37:31.489Z,3.70
2018-02-10T09:39:58.952Z,3.80
2018-02-10T09:42:26.418Z,3.80
2018-02-10T09:44:53.868Z,3.80
2018-02-10T09:47:21.325Z,3.90
2018-02-10T09:49:48.783Z,3.90
2018-02-10T09:52:16.245Z,4.00
2018-02-10T09:54:43.704Z,4.00
2018-02-10T09:57:11.169Z,4.10
2018-02-10T09:59:38.634Z,4.10
2018-02-10T10:02:06.092Z,4.20
2018-02-10T10:04:33.547Z,4.20
2018-02-10T10:07:01.005Z,4.30
2018-02-10T10:09:28.466Z,4.30
2018-02-10T10:11:55.929Z,4.40
2018-02-10T10:14:23.431Z,4.40
2018-02-10T10:16:50.874Z,4.40
2018-02-10T10:19:18.337Z,4.60
2018-02-10T10:21:45.790Z,4.60
2018-02-10T10:24:13.248Z,4.60
2018-02-10T10:26:40.709Z,4.70
2018-02-10T10:29:08.176Z,4.70
2018-02-10T10:31:35.634Z,4.80
2018-02-10T10:34:03.096Z,4.90
2018-02-10T10:36:30.556Z,4.90
2018-02-10T10:38:58.017Z,4.90
2018-02-10T10:41:25.481Z,4.90
2018-02-10T10:43:52.937Z,4.90
2018-02-10T10:46:20.423Z,4.90
2018-02-10T10:48:47.928Z,4.90
2018-02-10T10:51:15.387Z,4.80
2018-02-10T10:53:42.846Z,4.80
2018-02-10T10:56:10.307Z,4.70
2018-02-10T10:58:37.765Z,4.80
2018-02-10T11:01:05.217Z,4.70
2018-02-10T11:03:32.694Z,4.80
2018-02-10T11:06:00.144Z,4.80
2018-02-10T11:08:27.624Z,4.80
2018-02-10T11:10:55.077Z,4.80
2018-02-10T11:13:22.537Z,4.80
2018-02-10T11:15:50.128Z,4.80
2018-02-10T11:18:18.355Z,4.80
2018-02-10T11:20:45.813Z,4.80
2018-02-10T11:23:13.281Z,4.80
2018-02-10T11:25:40.740Z,4.80
2018-02-10T11:28:08.220Z,4.80
2018-02-10T11:30:36.441Z,4.70
2018-02-10T11:33:03.897Z,4.70
2018-02-10T11:35:31.358Z,4.70
2018-02-10T11:37:58.822Z,4.70
2018-02-10T11:40:26.277Z,4.70
2018-02-10T11:42:53.742Z,4.60
2018-02-10T11:45:21.969Z,4.70
2018-02-10T11:47:49.433Z,4.60
2018-02-10T11:50:16.908Z,4.70
2018-02-10T11:52:44.369Z,4.70
2018-02-10T11:55:11.837Z,4.70
2018-02-10T11:57:39.293Z,4.70
2018-02-10T12:00:06.761Z,4.70
2018-02-10T12:02:34.988Z,4.60
2018-02-10T12:05:02.445Z,4.60
2018-02-10T12:07:29.901Z,4.60
2018-02-10T12:09:57.368Z,4.50
2018-02-10T12:12:24.817Z,4.50
2018-02-10T12:14:52.292Z,4.50
2018-02-10T12:17:19.742Z,4.50
2018-02-10T12:19:47.206Z,4.50
2018-02-10T12:22:14.665Z,4.50
2018-02-10T12:24:42.141Z,4.50
2018-02-10T12:27:09.594Z,4.50
2018-02-10T12:29:37.062Z,4.60
2018-02-10T12:32:04.526Z,4.60
2018-02-10T12:34:31.977Z,4.50
2018-02-10T12:36:59.432Z,4.60
2018-02-10T12:39:26.897Z,4.50
2018-02-10T12:41:55.445Z,4.60
2018-02-10T12:44:22.917Z,4.60
2018-02-10T12:46:51.363Z,4.60
2018-02-10T12:49:25.517Z,4.70
2018-02-10T12:51:52.966Z,4.70
2018-02-10T12:54:20.417Z,4.60
2018-02-10T12:56:47.884Z,4.60
2018-02-10T12:59:15.345Z,4.60
2018-02-10T13:01:42.809Z,4.60
2018-02-10T13:04:10.282Z,4.60
2018-02-10T13:06:37.732Z,4.60
2018-02-10T13:09:05.185Z,4.60
2018-02-10T13:11:32.649Z,4.50
2018-02-10T13:14:00.101Z,4.60
2018-02-10T13:16:27.823Z,4.60
2018-02-10T13:18:55.272Z,4.60
2018-02-10T13:21:22.742Z,4.60
2018-02-10T13:23:50.442Z,4.60
2018-02-10T13:26:18.093Z,4.60
2018-02-10T13:28:45.557Z,4.60
2018-02-10T13:31:13.021Z,4.60
2018-02-10T13:33:40.470Z,4.60
2018-02-10T13:36:07.934Z,4.50
2018-02-10T13:38:35.382Z,4.60
2018-02-10T13:41:04.461Z,4.50
2018-02-10T13:43:31.912Z,4.50
2018-02-10T13:45:59.369Z,4.50
2018-02-10T13:48:37.727Z,4.50
2018-02-10T13:51:08.138Z,4.40
2018-02-10T13:53:35.965Z,4.40
2018-02-10T13:56:03.414Z,4.40
2018-02-10T13:58:30.882Z,4.30
2018-02-10T14:00:58.337Z,4.30
2018-02-10T14:03:25.801Z,4.20
2018-02-10T14:05:53.257Z,4.20
2018-02-10T14:08:28.330Z,4.20
2018-02-10T14:10:56.544Z,4.00
2018-02-10T14:13:24.013Z,4.00
2018-02-10T14:15:51.481Z,4.00
2018-02-10T14:18:18.978Z,4.00
2018-02-10T14:20:46.400Z,3.90
2018-02-10T14:23:13.873Z,4.00
2018-02-10T14:25:41.337Z,4.00
2018-02-10T14:28:09.564Z,3.90
2018-02-10T14:30:37.036Z,3.90
2018-02-10T14:33:04.489Z,3.90
2018-02-10T14:35:31.949Z,3.90
2018-02-10T14:37:59.409Z,3.80
2018-02-10T14:40:26.866Z,3.80
2018-02-10T14:42:54.336Z,3.80
2018-02-10T14:45:21.800Z,3.80
2018-02-10T14:47:49.261Z,3.70
2018-02-10T14:50:17.480Z,3.70
2018-02-10T14:52:44.941Z,3.70
2018-02-10T14:55:12.394Z,3.70
2018-02-10T14:57:39.861Z,3.70
2018-02-10T15:00:07.317Z,3.60
2018-02-10T15:02:34.776Z,3.60
2018-02-10T15:05:02.229Z,3.60
2018-02-10T15:07:29.693Z,3.60
2018-02-10T15:09:57.152Z,3.50
2018-02-10T15:12:24.627Z,3.50
2018-02-10T15:14:52.083Z,3.50
2018-02-10T15:17:19.530Z,3.50
2018-02-10T15:19:47.970Z,3.50
2018-02-10T15:22:15.424Z,3.50
2018-02-10T15:24:42.880Z,3.50
2018-02-10T15:27:10.337Z,3.50
2018-02-10T15:29:49.809Z,3.50
2018-02-10T15:32:29.317Z,3.50
2018-02-10T15:34:58.733Z,3.50
2018-02-10T15:37:26.194Z,3.50
2018-02-10T15:39:53.654Z,3.50
2018-02-10T15:42:21.109Z,3.50
2018-02-10T15:44:48.564Z,3.40
2018-02-10T15:47:16.133Z,3.40
2018-02-10T15:49:43.578Z,3.40
2018-02-10T15:52:11.034Z,3.40
2018-02-10T15:54:38.494Z,3.40
2018-02-10T15:57:05.957Z,3.40
2018-02-10T15:59:33.417Z,3.40
2018-02-10T16:02:00.869Z,3.30
2018-02-10T16:04:28.341Z,3.30
2018-02-10T16:06:55.802Z,3.30
2018-02-10T16:09:23.269Z,3.30
2018-02-10T16:11:50.729Z,3.30
2018-02-10T16:14:18.198Z,3.30
2018-02-10T16:16:45.649Z,3.20
2018-02-10T16:19:13.102Z,3.20
2018-02-10T16:21:40.554Z,3.20
2018-02-10T16:24:08.021Z,3.20
2018-02-10T16:26:35.470Z,3.20
2018-02-10T16:29:02.938Z,3.20
2018-02-10T16:31:31.157Z,3.20
2018-02-10T16:33:58.629Z,3.20
2018-02-10T16:36:26.088Z,3.20
2018-02-10T16:38:53.549Z,3.20
2018-02-10T16:41:21.009Z,3.20
2018-02-10T16:43:49.445Z,3.20
2018-02-10T16:46:16.902Z,3.20
2018-02-10T16:48:44.360Z,3.20
2018-02-10T16:51:11.813Z,3.20
2018-02-10T16:53:39.261Z,3.20
2018-02-10T16:56:07.489Z,3.20
2018-02-10T16:58:34.939Z,3.20
2018-02-10T17:01:02.401Z,3.20
2018-02-10T17:03:29.859Z,3.20
2018-02-10T17:05:57.329Z,3.20
2018-02-10T17:08:24.789Z,3.20
2018-02-10T17:10:52.257Z,3.20
2018-02-10T17:13:19.708Z,3.20
2018-02-10T17:15:47.169Z,3.20
2018-02-10T17:18:15.541Z,3.20
2018-02-10T17:20:43.003Z,3.30
2018-02-10T17:23:10.453Z,3.30
2018-02-10T17:25:37.912Z,3.30
2018-02-10T17:28:05.365Z,3.30
2018-02-10T17:30:32.829Z,3.30
2018-02-10T17:33:00.277Z,3.30
2018-02-10T17:35:27.786Z,3.30
2018-02-10T17:37:55.237Z,3.30
2018-02-10T17:40:22.705Z,3.30
2018-02-10T17:42:50.165Z,3.30
2018-02-10T17:45:17.617Z,3.40
2018-02-10T17:47:45.083Z,3.40
2018-02-10T17:50:12.534Z,3.40
2018-02-10T17:52:39.996Z,3.40
2018-02-10T17:55:07.449Z,3.40
2018-02-10T17:57:34.913Z,3.40
2018-02-10T18:00:02.369Z,3.40
2018-02-10T18:02:29.840Z,3.40
2018-02-10T18:04:57.290Z,3.40
2018-02-10T18:07:24.761Z,3.40
2018-02-10T18:09:52.219Z,3.40
2018-02-10T18:12:19.680Z,3.40
2018-02-10T18:14:47.138Z,3.40
2018-02-10T18:17:14.602Z,3.40
2018-02-10T18:19:42.053Z,3.40
2018-02-10T18:22:09.509Z,3.40
2018-02-10T18:24:36.962Z,3.40
2018-02-10T18:27:04.421Z,3.50
2018-02-10T18:29:31.874Z,3.50
2018-02-10T18:31:59.334Z,3.40
2018-02-10T18:34:26.793Z,3.50
2018-02-10T18:36:54.260Z,3.50
2018-02-10T18:39:22.488Z,3.50
2018-02-10T18:41:49.945Z,3.40
2018-02-10T18:44:17.402Z,3.50
2018-02-10T18:46:44.873Z,3.50
2018-02-10T18:49:12.373Z,3.50
2018-02-10T18:51:40.598Z,3.50
2018-02-10T18:54:08.054Z,3.50
2018-02-10T18:56:35.553Z,3.50
2018-02-10T18:59:02.977Z,3.40
2018-02-10T19:01:30.436Z,3.40
2018-02-10T19:03:57.885Z,3.50
2018-02-10T19:06:25.358Z,3.50
2018-02-10T19:08:52.859Z,3.40
2018-02-10T19:11:20.282Z,3.40
2018-02-10T19:13:47.741Z,3.40
2018-02-10T19:16:15.195Z,3.40
2018-02-10T19:18:42.654Z,3.30
2018-02-10T19:21:10.114Z,3.40
2018-02-10T19:23:37.574Z,3.40
2018-02-10T19:26:05.029Z,3.40
2018-02-10T19:28:32.498Z,3.40
2018-02-10T19:31:00.719Z,3.40
2018-02-10T19:33:28.176Z,3.40
2018-02-10T19:35:55.633Z,3.40
2018-02-10T19:38:23.101Z,3.40
2018-02-10T19:40:50.558Z,3.40
2018-02-10T19:43:18.018Z,3.40
2018-02-10T19:45:45.471Z,3.40
2018-02-10T19:48:12.933Z,3.40
2018-02-10T19:50:40.389Z,3.40
2018-02-10T19:53:07.849Z,3.40
2018-02-10T19:55:35.305Z,3.40
2018-02-10T19:58:02.773Z,3.40
2018-02-10T20:00:30.221Z,3.40
2018-02-10T20:02:57.685Z,3.50
2018-02-10T20:05:25.202Z,3.50
2018-02-10T20:07:52.614Z,3.50
2018-02-10T20:10:20.835Z,3.40
2018-02-10T20:12:48.308Z,3.40
2018-02-10T20:15:15.762Z,3.50
2018-02-10T20:17:43.230Z,3.50
2018-02-10T20:20:10.684Z,3.50
2018-02-10T20:22:38.138Z,3.50
2018-02-10T20:25:05.597Z,3.50
2018-02-10T20:27:33.052Z,3.50
2018-02-10T20:30:00.524Z,3.50
2018-02-10T20:32:27.999Z,3.50
2018-02-10T20:34:56.223Z,3.50
2018-02-10T20:37:23.678Z,3.50
2018-02-10T20:39:51.133Z,3.50
2018-02-10T20:42:18.595Z,3.50
2018-02-10T20:44:46.054Z,3.50
2018-02-10T20:47:13.517Z,3.50
2018-02-10T20:49:40.977Z,3.50
2018-02-10T20:52:08.434Z,3.50
2018-02-10T20:54:35.897Z,3.50
2018-02-10T20:57:03.349Z,3.50
2018-02-10T20:59:30.814Z,3.50
2018-02-10T21:01:58.269Z,3.50
2018-02-10T21:04:25.737Z,3.50
2018-02-10T21:06:53.180Z,3.60
2018-02-10T21:09:20.640Z,3.60
2018-02-10T21:11:48.096Z,3.50
2018-02-10T21:14:15.562Z,3.50
2018-02-10T21:16:43.011Z,3.50
2018-02-10T21:19:10.471Z,3.60
2018-02-10T21:21:37.920Z,3.60
2018-02-10T21:24:05.394Z,3.60
2018-02-10T21:26:32.849Z,3.60
2018-02-10T21:29:00.305Z,3.50
2018-02-10T21:31:27.792Z,3.50
2018-02-10T21:33:56.004Z,3.60
2018-02-10T21:36:23.465Z,3.60
2018-02-10T21:38:50.929Z,3.50
2018-02-10T21:41:19.157Z,3.50
2018-02-10T21:43:46.620Z,3.50
2018-02-10T21:46:14.070Z,3.50
2018-02-10T21:48:41.521Z,3.50
2018-02-10T21:51:08.981Z,3.50
2018-02-10T21:53:36.432Z,3.50
2018-02-10T21:56:04.660Z,3.50
2018-02-10T21:58:32.109Z,3.40
2018-02-10T22:00:59.566Z,3.50
2018-02-10T22:03:27.015Z,3.50
2018-02-10T22:05:54.478Z,3.50
2018-02-10T22:08:21.924Z,3.50
2018-02-10T22:10:49.376Z,3.50
2018-02-10T22:13:16.827Z,3.50
2018-02-10T22:15:44.287Z,3.50
2018-02-10T22:18:11.730Z,3.50
2018-02-10T22:20:39.185Z,3.50
2018-02-10T22:23:06.630Z,3.50
2018-02-10T22:25:34.086Z,3.50
2018-02-10T22:28:02.307Z,3.50
2018-02-10T22:30:29.750Z,3.40
2018-02-10T22:32:57.222Z,3.40
2018-02-10T22:35:24.658Z,3.40
2018-02-10T22:37:52.113Z,3.40
2018-02-10T22:40:19.562Z,3.40
2018-02-10T22:42:47.019Z,3.40
2018-02-10T22:45:14.470Z,3.40
2018-02-10T22:47:41.924Z,3.50
2018-02-10T22:50:09.368Z,3.40
2018-02-10T22:52:37.593Z,3.40
2018-02-10T22:55:05.045Z,3.40
2018-02-10T22:57:32.539Z,3.40
2018-02-10T22:59:59.986Z,3.40
2018-02-10T23:02:27.441Z,3.40
2018-02-10T23:04:54.888Z,3.40
2018-02-10T23:07:22.377Z,3.40
2018-02-10T23:09:50.596Z,3.40
2018-02-10T23:12:18.057Z,3.40
2018-02-10T23:14:45.497Z,3.40
2018-02-10T23:17:13.508Z,3.40
2018-02-10T23:19:40.953Z,3.40
2018-02-10T23:22:08.404Z,3.40
2018-02-10T23:24:35.901Z,3.40
2018-02-10T23:27:04.118Z,3.40
2018-02-10T23:29:31.564Z,3.40
2018-02-10T23:31:59.049Z,3.40
2018-02-10T23:34:26.509Z,3.40
2018-02-10T23:36:53.964Z,3.50
2018-02-10T23:39:22.194Z,3.50
2018-02-10T23:41:49.653Z,3.50
2018-02-10T23:44:17.100Z,3.50
2018-02-10T23:46:45.323Z,3.50
2018-02-10T23:49:12.774Z,3.50
2018-02-10T23:51:40.241Z,3.50
2018-02-10T23:54:07.692Z,3.50
2018-02-10T23:56:35.149Z,3.50
2018-02-10T23:59:02.605Z,3.40
